Time;durP1;ratioP1;P1;durP2;ratioP2;P2;SDS_P1;SDS_P2;PMS_P1;PMS_P2;Temp;Humidity;BMP_temperature;BMP_pressure;BME280_temperature;BME280_humidity;BME280_pressure;Samples;Min_cycle;Max_cycle;Signal;HPM_P1;HPM_P2
2022/01/01 00:02:55;;;;;;;5.75;4.80;;;;;;;;;;8262914;28;20608;-82
2022/01/01 00:06:56;;;;;;;5.78;4.93;;;;;;;;;;8271940;28;20021;-82
2022/01/01 00:10:56;;;;;;;7.70;4.72;;;;;;;;;;8276877;28;20116;-82
2022/01/01 00:14:56;;;;;;;6.90;5.20;;;;;;;;;;8275975;28;20075;-81
2022/01/01 00:18:57;;;;;;;8.35;5.18;;;;;;;;;;8273512;28;20088;-82
2022/01/01 00:22:57;;;;;;;7.38;5.40;;;;;;;;;;8276331;28;20026;-82
2022/01/01 00:26:57;;;;;;;7.05;4.78;;;;;;;;;;8274014;28;20033;-82
2022/01/01 00:30:57;;;;;;;5.38;4.43;;;;;;;;;;8275263;28;20041;-83
2022/01/01 00:34:58;;;;;;;8.27;5.17;;;;;;;;;;8276182;28;20033;-82
2022/01/01 00:38:58;;;;;;;6.35;4.78;;;;;;;;;;8276023;28;20360;-82
2022/01/01 00:43:00;;;;;;;7.70;5.30;;;;;;;;;;8275610;28;20172;-82
2022/01/01 00:47:01;;;;;;;7.70;5.78;;;;;;;;;;8273904;28;20041;-82
2022/01/01 00:51:01;;;;;;;7.75;5.93;;;;;;;;;;8276246;28;20037;-83
2022/01/01 00:55:01;;;;;;;6.53;5.38;;;;;;;;;;8274705;28;20095;-82
2022/01/01 00:59:01;;;;;;;7.43;5.50;;;;;;;;;;8275180;28;20021;-82
2022/01/01 01:03:07;;;;;;;7.80;4.75;;;;;;;;;;8272270;28;20269;-82
2022/01/01 01:07:08;;;;;;;7.93;5.40;;;;;;;;;;8272093;28;20025;-82
2022/01/01 01:11:08;;;;;;;7.90;5.22;;;;;;;;;;8270872;28;20025;-82
2022/01/01 01:15:11;;;;;;;9.02;5.50;;;;;;;;;;8265490;28;20071;-82
2022/01/01 01:19:11;;;;;;;9.73;6.13;;;;;;;;;;8281895;28;20123;-82
2022/01/01 01:23:12;;;;;;;13.45;6.03;;;;;;;;;;8274238;28;20026;-82
2022/01/01 01:27:12;;;;;;;9.70;6.60;;;;;;;;;;8275106;28;20022;-82
2022/01/01 01:31:12;;;;;;;7.75;6.03;;;;;;;;;;8273520;28;20057;-82
2022/01/01 01:35:13;;;;;;;8.95;6.53;;;;;;;;;;8274219;28;20042;-82
2022/01/01 01:39:13;;;;;;;9.60;6.45;;;;;;;;;;8275513;28;20033;-82
2022/01/01 01:43:13;;;;;;;10.13;6.53;;;;;;;;;;8274705;28;20539;-82
2022/01/01 01:47:17;;;;;;;10.13;7.13;;;;;;;;;;8272085;28;20045;-82
2022/01/01 01:51:17;;;;;;;;;;;;;;;;;;8276821;28;21334;-82
2022/01/01 01:55:18;;;;;;;11.18;7.03;;;;;;;;;;8284682;28;19920;-82
2022/01/01 01:59:18;;;;;;;12.07;7.05;;;;;;;;;;8275038;28;20018;-83
2022/01/01 02:03:18;;;;;;;8.50;6.40;;;;;;;;;;8270291;28;20034;-82
2022/01/01 02:07:20;;;;;;;9.75;6.22;;;;;;;;;;8273797;28;20021;-82
2022/01/01 02:11:21;;;;;;;9.52;6.10;;;;;;;;;;8287228;28;20025;-83
2022/01/01 02:19:59;;;;;;;8.10;6.25;;;;;;;;;;8273699;28;20037;-82
2022/01/01 02:24:00;;;;;;;11.65;7.57;;;;;;;;;;8265919;28;20037;-82
2022/01/01 02:28:00;;;;;;;14.52;7.85;;;;;;;;;;8270985;28;20152;-82
2022/01/01 02:32:00;;;;;;;12.32;8.10;;;;;;;;;;8270616;28;20481;-82
2022/01/01 02:36:01;;;;;;;13.45;8.65;;;;;;;;;;8270832;28;20045;-83
2022/01/01 02:40:01;;;;;;;11.75;8.77;;;;;;;;;;8272952;28;20136;-82
2022/01/01 02:44:01;;;;;;;9.73;7.80;;;;;;;;;;8270194;28;20846;-82
2022/01/01 02:48:02;;;;;;;13.18;7.93;;;;;;;;;;8264177;28;20687;-81
2022/01/01 02:52:02;;;;;;;10.10;7.88;;;;;;;;;;8272761;28;20161;-82
2022/01/01 02:56:02;;;;;;;13.57;8.48;;;;;;;;;;8272021;28;20494;-82
2022/01/01 03:00:03;;;;;;;10.35;7.95;;;;;;;;;;8272825;28;20840;-81
2022/01/01 03:04:03;;;;;;;10.30;7.20;;;;;;;;;;8279969;28;20064;-82
2022/01/01 03:08:04;;;;;;;10.40;7.32;;;;;;;;;;8271940;28;20574;-82
2022/01/01 03:12:05;;;;;;;8.77;6.60;;;;;;;;;;8270031;28;20040;-82
2022/01/01 03:16:05;;;;;;;12.52;7.28;;;;;;;;;;8272059;28;20125;-82
2022/01/01 03:20:06;;;;;;;9.57;7.03;;;;;;;;;;8271164;28;20036;-82
2022/01/01 03:24:08;;;;;;;11.25;7.35;;;;;;;;;;8273868;28;20049;-82
2022/01/01 03:28:08;;;;;;;9.10;7.13;;;;;;;;;;8273277;28;20177;-82
2022/01/01 03:32:08;;;;;;;10.00;7.43;;;;;;;;;;8270100;28;20062;-82
2022/01/01 03:36:08;;;;;;;11.20;8.05;;;;;;;;;;8271045;28;20061;-82
2022/01/01 03:40:09;;;;;;;18.00;10.07;;;;;;;;;;8272361;28;20025;-82
2022/01/01 03:44:09;;;;;;;14.25;9.27;;;;;;;;;;8276786;28;20435;-82
2022/01/01 03:48:09;;;;;;;13.25;9.63;;;;;;;;;;8276571;28;20515;-82
2022/01/01 03:52:10;;;;;;;15.20;10.45;;;;;;;;;;8276609;28;20025;-81
2022/01/01 03:56:11;;;;;;;14.93;9.93;;;;;;;;;;8277576;28;20104;-82
2022/01/01 04:00:11;;;;;;;13.80;9.45;;;;;;;;;;8278816;28;20506;-81
2022/01/01 04:04:12;;;;;;;11.55;9.23;;;;;;;;;;8275433;28;20057;-81
2022/01/01 04:08:12;;;;;;;13.38;8.95;;;;;;;;;;8278374;28;20399;-81
2022/01/01 04:12:13;;;;;;;11.15;7.72;;;;;;;;;;8277558;28;20034;-82
2022/01/01 04:16:13;;;;;;;13.50;8.82;;;;;;;;;;8275808;28;20077;-82
2022/01/01 04:20:13;;;;;;;11.55;8.15;;;;;;;;;;8275570;28;20379;-82
2022/01/01 04:24:13;;;;;;;11.93;8.52;;;;;;;;;;8276102;28;20060;-81
2022/01/01 04:28:13;;;;;;;12.93;8.70;;;;;;;;;;8284485;28;20061;-82
2022/01/01 04:32:16;;;;;;;11.45;7.80;;;;;;;;;;8269237;28;20046;-81
2022/01/01 04:36:17;;;;;;;12.70;8.75;;;;;;;;;;8274470;28;20025;-82
2022/01/01 04:40:17;;;;;;;14.10;8.90;;;;;;;;;;8273240;28;20025;-81
2022/01/01 04:44:17;;;;;;;13.40;9.50;;;;;;;;;;8277290;28;20281;-82
2022/01/01 04:48:17;;;;;;;14.57;8.80;;;;;;;;;;8273774;28;20068;-82
2022/01/01 04:52:18;;;;;;;12.00;8.85;;;;;;;;;;8274974;28;20103;-82
2022/01/01 04:56:20;;;;;;;13.35;8.63;;;;;;;;;;8275492;28;20028;-82
2022/01/01 05:00:20;;;;;;;11.88;8.27;;;;;;;;;;8273416;28;20155;-82
2022/01/01 05:04:20;;;;;;;10.80;7.95;;;;;;;;;;8277848;28;20117;-82
2022/01/01 05:08:20;;;;;;;14.20;8.48;;;;;;;;;;8277338;28;20029;-82
2022/01/01 05:12:20;;;;;;;12.82;8.23;;;;;;;;;;8275138;28;20029;-82
2022/01/01 05:16:21;;;;;;;12.13;8.07;;;;;;;;;;8284967;28;20372;-82
2022/01/01 05:20:21;;;;;;;13.32;9.05;;;;;;;;;;8273000;28;20128;-82
2022/01/01 05:24:22;;;;;;;14.65;9.77;;;;;;;;;;8275448;28;20022;-82
2022/01/01 05:28:22;;;;;;;15.05;10.02;;;;;;;;;;8285621;28;20034;-82
2022/01/01 05:32:22;;;;;;;17.48;10.27;;;;;;;;;;8266844;28;20049;-82
2022/01/01 05:36:22;;;;;;;15.00;9.45;;;;;;;;;;8267641;28;20687;-81
2022/01/01 05:40:23;;;;;;;15.25;8.85;;;;;;;;;;8274789;28;20067;-82
2022/01/01 05:44:24;;;;;;;12.27;9.05;;;;;;;;;;8273757;28;20403;-82
2022/01/01 05:48:27;;;;;;;14.93;8.82;;;;;;;;;;8267241;28;20033;-82
2022/01/01 05:52:27;;;;;;;14.57;8.87;;;;;;;;;;8276013;28;20036;-81
2022/01/01 05:56:27;;;;;;;11.52;8.73;;;;;;;;;;8271147;28;20275;-82
2022/01/01 06:00:28;;;;;;;15.13;9.55;;;;;;;;;;8274865;28;20034;-82
2022/01/01 06:04:28;;;;;;;21.33;13.80;;;;;;;;;;8282577;28;20026;-82
2022/01/01 06:08:28;;;;;;;38.22;20.27;;;;;;;;;;8273346;28;20025;-82
2022/01/01 06:12:29;;;;;;;41.65;22.08;;;;;;;;;;8274312;28;20025;-82
2022/01/01 06:16:29;;;;;;;42.03;22.77;;;;;;;;;;8266280;28;20431;-81
2022/01/01 06:20:29;;;;;;;29.58;15.50;;;;;;;;;;8272557;28;20175;-82
2022/01/01 06:24:29;;;;;;;20.05;12.85;;;;;;;;;;8273279;28;20084;-82
2022/01/01 06:28:29;;;;;;;15.68;11.18;;;;;;;;;;8270317;28;20029;-81
2022/01/01 06:32:30;;;;;;;19.77;11.30;;;;;;;;;;8269718;28;20042;-81
2022/01/01 06:36:31;;;;;;;16.42;10.57;;;;;;;;;;8271107;28;20022;-82
2022/01/01 06:40:31;;;;;;;15.57;9.82;;;;;;;;;;8273355;28;20024;-81
2022/01/01 06:44:31;;;;;;;16.03;10.43;;;;;;;;;;8274195;28;20029;-82
2022/01/01 06:48:32;;;;;;;13.60;9.75;;;;;;;;;;8269922;28;21137;-81
2022/01/01 06:52:32;;;;;;;13.33;9.43;;;;;;;;;;8273315;28;20025;-81
2022/01/01 06:56:32;;;;;;;13.27;9.27;;;;;;;;;;8266428;28;20457;-82
2022/01/01 07:00:32;;;;;;;13.73;9.75;;;;;;;;;;8269795;28;20550;-82
2022/01/01 07:04:32;;;;;;;15.45;9.82;;;;;;;;;;8273615;28;20822;-81
2022/01/01 07:08:33;;;;;;;14.65;10.07;;;;;;;;;;8272672;28;20111;-81
2022/01/01 07:12:33;;;;;;;14.40;10.37;;;;;;;;;;8270833;28;20069;-82
2022/01/01 07:16:33;;;;;;;15.05;10.35;;;;;;;;;;8283236;28;20279;-82
2022/01/01 07:20:33;;;;;;;16.10;11.00;;;;;;;;;;8278481;28;20034;-81
2022/01/01 07:24:34;;;;;;;20.73;12.32;;;;;;;;;;8279906;28;20042;-81
2022/01/01 07:28:34;;;;;;;17.75;11.45;;;;;;;;;;8279990;28;20026;-82
2022/01/01 07:32:37;;;;;;;16.65;10.75;;;;;;;;;;8269962;28;20045;-80
2022/01/01 07:36:37;;;;;;;60.55;11.98;;;;;;;;;;8279704;28;20061;-80
2022/01/01 07:40:39;;;;;;;26.73;11.63;;;;;;;;;;8279309;28;20370;-80
2022/01/01 07:44:40;;;;;;;27.70;11.82;;;;;;;;;;8279899;28;20022;-80
2022/01/01 07:48:40;;;;;;;87.05;12.48;;;;;;;;;;8277449;28;20536;-80
2022/01/01 07:52:41;;;;;;;47.78;12.73;;;;;;;;;;8278846;28;20538;-80
2022/01/01 07:56:42;;;;;;;15.77;11.50;;;;;;;;;;8277963;28;20021;-80
2022/01/01 08:00:42;;;;;;;18.13;11.73;;;;;;;;;;8279133;28;20038;-80
2022/01/01 08:04:42;;;;;;;15.50;10.85;;;;;;;;;;8277904;28;20030;-80
2022/01/01 08:08:42;;;;;;;17.83;11.63;;;;;;;;;;8276683;28;20181;-79
2022/01/01 08:12:43;;;;;;;15.15;10.98;;;;;;;;;;8278060;28;20029;-79
2022/01/01 08:16:59;;;;;;;16.58;10.35;;;;;;;;;;8276523;28;20037;-80
2022/01/01 08:20:59;;;;;;;16.48;10.05;;;;;;;;;;8278119;28;20764;-80
2022/01/01 08:25:01;;;;;;;15.82;9.57;;;;;;;;;;8278752;28;20033;-80
2022/01/01 08:29:01;;;;;;;17.80;10.98;;;;;;;;;;8274512;28;20029;-80
2022/01/01 08:33:02;;;;;;;14.88;10.15;;;;;;;;;;8275130;28;20548;-80
2022/01/01 08:37:02;;;;;;;14.02;9.65;;;;;;;;;;8278554;28;20056;-80
2022/01/01 08:41:02;;;;;;;12.90;9.40;;;;;;;;;;8275165;28;20087;-80
2022/01/01 08:45:02;;;;;;;22.27;12.27;;;;;;;;;;8274151;28;21035;-80
2022/01/01 08:49:03;;;;;;;64.50;21.58;;;;;;;;;;8275686;28;20029;-80
2022/01/01 08:53:03;;;;;;;40.15;15.70;;;;;;;;;;8275194;28;20021;-79
2022/01/01 08:57:03;;;;;;;47.92;18.80;;;;;;;;;;8278338;28;20034;-80
2022/01/01 09:01:04;;;;;;;24.80;12.20;;;;;;;;;;8274118;28;20578;-80
2022/01/01 09:05:04;;;;;;;37.92;16.88;;;;;;;;;;8275657;28;20275;-79
2022/01/01 09:09:04;;;;;;;22.40;13.35;;;;;;;;;;8290614;28;20053;-80
2022/01/01 09:13:05;;;;;;;27.20;14.98;;;;;;;;;;8274504;28;20695;-80
2022/01/01 09:17:06;;;;;;;38.70;18.40;;;;;;;;;;8274828;28;20033;-80
2022/01/01 09:21:06;;;;;;;31.45;16.50;;;;;;;;;;8276778;28;20034;-79
2022/01/01 09:25:06;;;;;;;24.25;13.77;;;;;;;;;;8275223;28;20025;-80
2022/01/01 09:29:09;;;;;;;31.05;19.67;;;;;;;;;;8277065;28;20055;-80
2022/01/01 09:33:12;;;;;;;32.97;18.27;;;;;;;;;;8272914;28;20056;-79
2022/01/01 09:37:12;;;;;;;19.88;12.68;;;;;;;;;;8275246;28;20060;-79
2022/01/01 09:41:13;;;;;;;17.90;10.93;;;;;;;;;;8272798;28;20337;-79
2022/01/01 09:45:13;;;;;;;14.60;8.68;;;;;;;;;;8272935;28;20030;-80
2022/01/01 09:49:14;;;;;;;12.32;8.77;;;;;;;;;;8275153;28;20025;-80
2022/01/01 09:53:15;;;;;;;12.40;9.00;;;;;;;;;;8276224;28;20530;-80
2022/01/01 09:57:15;;;;;;;12.25;8.95;;;;;;;;;;8273754;28;20028;-79
2022/01/01 10:01:16;;;;;;;13.50;9.57;;;;;;;;;;8274948;28;20069;-80
2022/01/01 10:05:22;;;;;;;13.07;8.95;;;;;;;;;;8343297;28;20431;-66
2022/01/01 10:09:29;;;;;;;15.35;9.32;;;;;;;;;;8344851;28;20037;-66
2022/01/01 10:13:31;;;;;;;16.73;11.63;;;;;;;;;;8341734;28;20511;-68
2022/01/01 10:17:31;;;;;;;17.25;11.38;;;;;;;;;;8343464;28;20043;-68
2022/01/01 10:21:36;;;;;;;16.95;10.10;;;;;;;;;;8345287;28;20206;-68
2022/01/01 10:30:19;;;;;;;14.25;9.68;;;;;;;;;;8302270;28;20041;-69
2022/01/01 10:34:21;;;;;;;17.25;10.48;;;;;;;;;;8343031;28;20044;-68
2022/01/01 10:38:22;;;;;;;15.35;10.70;;;;;;;;;;8341588;28;20866;-68
2022/01/01 10:42:23;;;;;;;13.52;9.27;;;;;;;;;;8342066;28;20024;-68
2022/01/01 10:46:23;;;;;;;14.63;9.40;;;;;;;;;;8342789;28;20124;-69
2022/01/01 10:50:31;;;;;;;16.65;9.02;;;;;;;;;;8341952;28;20028;-68
2022/01/01 10:54:31;;;;;;;15.13;9.70;;;;;;;;;;8342997;28;20040;-69
2022/01/01 10:58:34;;;;;;;13.27;8.82;;;;;;;;;;8343071;28;20025;-68
2022/01/01 11:02:35;;;;;;;12.57;8.45;;;;;;;;;;8361904;28;20724;-69
2022/01/01 11:06:37;;;;;;;13.48;9.10;;;;;;;;;;8375159;28;20016;-68
2022/01/01 11:10:38;;;;;;;12.40;8.90;;;;;;;;;;8376641;28;20032;-68
2022/01/01 11:14:39;;;;;;;16.05;9.35;;;;;;;;;;8365405;28;20044;-68
2022/01/01 11:18:39;;;;;;;13.07;9.02;;;;;;;;;;8351264;28;20037;-68
2022/01/01 11:22:41;;;;;;;12.35;7.47;;;;;;;;;;8352504;28;20036;-68
2022/01/01 11:26:41;;;;;;;14.85;8.18;;;;;;;;;;8352644;28;20021;-68
2022/01/01 11:30:44;;;;;;;13.02;8.15;;;;;;;;;;8351644;28;20119;-69
2022/01/01 11:34:46;;;;;;;11.27;7.60;;;;;;;;;;8352079;28;20028;-69
2022/01/01 11:38:46;;;;;;;12.05;7.72;;;;;;;;;;8351640;28;20835;-68
2022/01/01 11:42:48;;;;;;;10.65;7.78;;;;;;;;;;8351151;28;20082;-69
2022/01/01 11:47:01;;;;;;;11.73;8.68;;;;;;;;;;8350579;28;20037;-69
2022/01/01 11:51:19;;;;;;;9.97;7.63;;;;;;;;;;8351814;28;20033;-68
2022/01/01 11:55:20;;;;;;;8.15;6.30;;;;;;;;;;8352068;28;20259;-68
2022/01/01 11:59:20;;;;;;;9.77;6.75;;;;;;;;;;8351452;28;20393;-68
2022/01/01 12:03:22;;;;;;;10.63;6.97;;;;;;;;;;8350732;28;20501;-69
2022/01/01 12:07:24;;;;;;;11.05;6.90;;;;;;;;;;8350382;28;20028;-69
2022/01/01 12:11:31;;;;;;;6.75;5.75;;;;;;;;;;8350714;28;20813;-69
2022/01/01 12:15:31;;;;;;;10.70;6.15;;;;;;;;;;8350834;28;20086;-69
2022/01/01 12:19:35;;;;;;;10.88;5.43;;;;;;;;;;8349055;28;20021;-68
2022/01/01 12:23:37;;;;;;;7.22;5.03;;;;;;;;;;8350475;28;20386;-68
2022/01/01 12:27:42;;;;;;;7.35;4.80;;;;;;;;;;8349653;28;20195;-70
2022/01/01 12:32:00;;;;;;;7.38;4.75;;;;;;;;;;8352831;28;20890;-69
2022/01/01 12:36:04;;;;;;;7.13;4.10;;;;;;;;;;8349967;28;20027;-69
2022/01/01 12:40:05;;;;;;;6.75;4.30;;;;;;;;;;8350729;28;20025;-69
2022/01/01 12:44:05;;;;;;;6.22;4.05;;;;;;;;;;8354004;28;20160;-68
2022/01/01 12:48:05;;;;;;;6.78;4.63;;;;;;;;;;8359568;28;20490;-68
2022/01/01 12:52:09;;;;;;;7.10;4.65;;;;;;;;;;8351378;28;20064;-68
2022/01/01 12:56:11;;;;;;;9.73;5.88;;;;;;;;;;8358055;28;20021;-68
2022/01/01 13:00:21;;;;;;;6.60;4.30;;;;;;;;;;8353151;28;20028;-68
2022/01/01 13:04:26;;;;;;;7.65;4.40;;;;;;;;;;8350056;28;20029;-68
2022/01/01 13:08:26;;;;;;;12.80;8.35;;;;;;;;;;8350814;28;20104;-68
2022/01/01 13:12:31;;;;;;;11.65;6.20;;;;;;;;;;8352565;28;20016;-68
2022/01/01 13:16:31;;;;;;;5.25;4.13;;;;;;;;;;8354836;28;20502;-68
2022/01/01 13:20:32;;;;;;;6.85;3.40;;;;;;;;;;8353187;28;20394;-68
2022/01/01 13:24:33;;;;;;;4.82;2.92;;;;;;;;;;8352071;28;20028;-68
2022/01/01 13:28:35;;;;;;;6.60;2.85;;;;;;;;;;8352287;28;20017;-68
2022/01/01 13:32:35;;;;;;;5.45;2.58;;;;;;;;;;8355709;28;20032;-67
2022/01/01 13:36:38;;;;;;;5.28;2.70;;;;;;;;;;8363103;28;20356;-70
2022/01/01 13:40:38;;;;;;;8.50;5.32;;;;;;;;;;8370149;28;20036;-67
2022/01/01 13:44:42;;;;;;;8.38;5.35;;;;;;;;;;8352908;28;20044;-68
2022/01/01 13:48:48;;;;;;;5.35;3.58;;;;;;;;;;8352897;28;20044;-68
2022/01/01 13:52:56;;;;;;;6.50;4.47;;;;;;;;;;8353640;28;20027;-68
2022/01/01 13:57:01;;;;;;;8.00;4.38;;;;;;;;;;8357696;28;20723;-67
2022/01/01 14:01:02;;;;;;;4.35;3.00;;;;;;;;;;8358453;28;20369;-67
2022/01/01 14:05:03;;;;;;;6.70;3.15;;;;;;;;;;8351842;28;20129;-68
2022/01/01 14:09:06;;;;;;;2.75;2.45;;;;;;;;;;8354312;28;20069;-68
2022/01/01 14:13:06;;;;;;;5.97;2.90;;;;;;;;;;8352513;28;20551;-68
2022/01/01 14:17:07;;;;;;;7.45;2.92;;;;;;;;;;8347507;28;20275;-68
2022/01/01 14:21:08;;;;;;;5.70;3.10;;;;;;;;;;8347903;28;20048;-68
2022/01/01 14:25:08;;;;;;;7.72;3.20;;;;;;;;;;8346200;28;20074;-69
2022/01/01 14:29:09;;;;;;;5.22;3.00;;;;;;;;;;8349314;28;20517;-68
2022/01/01 14:33:09;;;;;;;6.78;2.88;;;;;;;;;;8343874;28;20129;-68
2022/01/01 14:37:09;;;;;;;8.68;3.20;;;;;;;;;;8345598;28;20118;-69
2022/01/01 14:41:10;;;;;;;5.25;3.00;;;;;;;;;;8345186;28;20024;-68
2022/01/01 14:45:11;;;;;;;3.65;3.17;;;;;;;;;;8345183;28;20496;-69
2022/01/01 14:49:11;;;;;;;6.05;3.10;;;;;;;;;;8346712;28;20397;-69
2022/01/01 14:53:16;;;;;;;5.40;2.90;;;;;;;;;;8359462;28;20106;-69
2022/01/01 14:57:17;;;;;;;6.35;3.58;;;;;;;;;;8353135;28;20031;-69
2022/01/01 15:01:17;;;;;;;13.13;7.28;;;;;;;;;;8354297;28;20041;-69
2022/01/01 15:05:18;;;;;;;13.73;6.83;;;;;;;;;;8351885;28;20024;-69
2022/01/01 15:09:19;;;;;;;13.63;7.13;;;;;;;;;;8353563;28;20267;-68
2022/01/01 15:13:19;;;;;;;37.75;16.70;;;;;;;;;;8354411;28;20033;-69
2022/01/01 15:17:20;;;;;;;16.77;8.70;;;;;;;;;;8351167;28;20040;-69
2022/01/01 15:21:37;;;;;;;11.73;7.40;;;;;;;;;;8353052;28;20287;-68
2022/01/01 15:25:38;;;;;;;12.05;7.30;;;;;;;;;;8352830;28;20043;-68
2022/01/01 15:33:49;;;;;;;14.43;8.45;;;;;;;;;;8349368;28;20170;-68
2022/01/01 15:38:01;;;;;;;15.23;8.70;;;;;;;;;;8350501;28;20063;-69
2022/01/01 15:42:23;;;;;;;12.98;7.35;;;;;;;;;;8350836;28;20033;-68
2022/01/01 15:46:24;;;;;;;12.27;7.25;;;;;;;;;;8351473;28;20743;-69
2022/01/01 15:50:24;;;;;;;13.45;8.20;;;;;;;;;;8352569;28;20020;-69
2022/01/01 15:54:24;;;;;;;13.68;8.88;;;;;;;;;;8352084;28;20021;-68
2022/01/01 15:58:25;;;;;;;11.43;7.55;;;;;;;;;;8349648;28;20028;-69
2022/01/01 16:02:32;;;;;;;13.35;7.78;;;;;;;;;;8351422;28;20786;-68
2022/01/01 16:06:34;;;;;;;12.75;8.27;;;;;;;;;;8350485;28;20124;-68
2022/01/01 16:10:37;;;;;;;10.23;7.25;;;;;;;;;;8350105;28;20028;-68
2022/01/01 16:14:50;;;;;;;13.38;7.93;;;;;;;;;;8351915;28;20066;-68
2022/01/01 16:18:52;;;;;;;16.45;10.90;;;;;;;;;;8349360;28;20039;-68
2022/01/01 16:22:52;;;;;;;19.42;11.68;;;;;;;;;;8351743;28;20039;-68
2022/01/01 16:26:53;;;;;;;17.45;10.18;;;;;;;;;;8351913;28;20029;-68
2022/01/01 16:30:53;;;;;;;17.52;10.82;;;;;;;;;;8351312;28;20032;-68
2022/01/01 16:34:54;;;;;;;17.65;11.32;;;;;;;;;;8348587;28;20578;-69
2022/01/01 16:38:56;;;;;;;17.17;11.05;;;;;;;;;;8351578;28;20055;-68
2022/01/01 16:42:56;;;;;;;17.20;10.13;;;;;;;;;;8349864;28;20523;-68
2022/01/01 16:47:08;;;;;;;15.88;9.88;;;;;;;;;;8350804;28;20029;-68
2022/01/01 16:51:09;;;;;;;13.80;9.98;;;;;;;;;;8349829;28;20028;-68
2022/01/01 16:55:10;;;;;;;10.27;7.03;;;;;;;;;;8347804;28;20031;-68
2022/01/01 16:59:13;;;;;;;9.80;6.22;;;;;;;;;;8349788;28;20025;-68
2022/01/01 17:03:32;;;;;;;11.00;5.83;;;;;;;;;;8348184;28;20041;-68
2022/01/01 17:07:35;;;;;;;8.65;5.93;;;;;;;;;;8350278;28;20020;-68
2022/01/01 17:11:36;;;;;;;17.08;14.18;;;;;;;;;;8348275;28;20017;-68
2022/01/01 17:15:41;;;;;;;17.10;14.48;;;;;;;;;;8346850;28;20039;-68
2022/01/01 17:19:48;;;;;;;16.77;13.52;;;;;;;;;;8349407;28;20033;-68
2022/01/01 17:23:50;;;;;;;15.90;12.38;;;;;;;;;;8349954;28;20028;-68
2022/01/01 17:27:54;;;;;;;22.50;14.30;;;;;;;;;;8349390;28;20499;-68
2022/01/01 17:31:55;;;;;;;24.48;14.60;;;;;;;;;;8347665;28;20258;-68
2022/01/01 17:40:16;;;;;;;21.38;14.45;;;;;;;;;;8348890;28;20032;-68
2022/01/01 17:44:17;;;;;;;17.58;11.00;;;;;;;;;;8348390;28;20732;-68
2022/01/01 17:48:18;;;;;;;18.45;14.65;;;;;;;;;;8346833;28;20414;-68
2022/01/01 17:52:22;;;;;;;27.85;17.55;;;;;;;;;;8346094;28;20956;-68
2022/01/01 17:56:22;;;;;;;;;;;;;;;;;;8348980;28;20363;-69
2022/01/01 18:00:23;;;;;;;11.00;8.30;;;;;;;;;;8347429;28;19917;-69
2022/01/01 18:04:24;;;;;;;14.60;9.65;;;;;;;;;;8349894;28;20038;-68
2022/01/01 18:08:27;;;;;;;36.83;22.38;;;;;;;;;;8346696;28;20107;-68
2022/01/01 18:12:29;;;;;;;25.30;14.53;;;;;;;;;;8347163;28;20032;-68
2022/01/01 18:16:30;;;;;;;20.98;11.77;;;;;;;;;;8346101;28;20036;-68
2022/01/01 18:20:36;;;;;;;54.80;26.63;;;;;;;;;;8347538;28;20905;-68
2022/01/01 18:24:42;;;;;;;56.35;29.05;;;;;;;;;;8349033;28;20086;-68
2022/01/01 18:28:44;;;;;;;61.60;31.88;;;;;;;;;;8353652;28;20797;-68
2022/01/01 18:32:44;;;;;;;47.25;23.58;;;;;;;;;;8353622;28;20417;-68
2022/01/01 18:36:45;;;;;;;31.17;14.77;;;;;;;;;;8351239;28;20032;-68
2022/01/01 18:40:46;;;;;;;21.98;11.32;;;;;;;;;;8354146;28;20029;-68
2022/01/01 18:44:46;;;;;;;12.30;8.23;;;;;;;;;;8354543;28;20076;-68
2022/01/01 18:48:46;;;;;;;11.27;7.18;;;;;;;;;;8352702;28;20039;-68
2022/01/01 18:52:53;;;;;;;7.90;6.00;;;;;;;;;;8353398;28;20523;-68
2022/01/01 18:57:05;;;;;;;9.60;5.82;;;;;;;;;;8350747;28;20029;-68
2022/01/01 19:01:05;;;;;;;8.85;6.00;;;;;;;;;;8351998;28;21060;-68
2022/01/01 19:05:15;;;;;;;5.70;4.50;;;;;;;;;;8351227;28;20111;-68
2022/01/01 19:09:28;;;;;;;5.07;3.70;;;;;;;;;;8353173;28;20033;-68
2022/01/01 19:13:34;;;;;;;6.50;4.10;;;;;;;;;;8352425;28;20024;-68
2022/01/01 19:17:35;;;;;;;5.78;3.53;;;;;;;;;;8351002;28;20043;-68
2022/01/01 19:21:36;;;;;;;6.50;3.17;;;;;;;;;;8353449;28;20031;-68
2022/01/01 19:25:40;;;;;;;5.05;3.30;;;;;;;;;;8351860;28;20070;-68
2022/01/01 19:29:41;;;;;;;3.00;2.45;;;;;;;;;;8347515;28;20029;-68
2022/01/01 19:33:42;;;;;;;3.40;2.65;;;;;;;;;;8351151;28;20051;-68
2022/01/01 19:37:42;;;;;;;5.43;3.15;;;;;;;;;;8351389;28;20066;-68
2022/01/01 19:41:51;;;;;;;33.03;7.32;;;;;;;;;;8348800;28;20033;-68
2022/01/01 19:45:53;;;;;;;484.92;14.50;;;;;;;;;;8351680;28;20045;-69
2022/01/01 19:49:58;;;;;;;451.85;14.90;;;;;;;;;;8350365;28;20060;-68
2022/01/01 19:53:59;;;;;;;93.30;11.10;;;;;;;;;;8353062;28;20040;-68
2022/01/01 19:57:59;;;;;;;229.38;8.80;;;;;;;;;;8350074;28;20162;-68
2022/01/01 20:01:59;;;;;;;96.10;6.38;;;;;;;;;;8349277;28;20067;-68
2022/01/01 20:05:59;;;;;;;145.30;6.53;;;;;;;;;;8350389;28;20401;-68
2022/01/01 20:10:00;;;;;;;60.83;4.67;;;;;;;;;;8350527;28;20124;-68
2022/01/01 20:14:01;;;;;;;5.63;4.72;;;;;;;;;;8350074;28;20417;-68
2022/01/01 20:18:02;;;;;;;5.60;4.43;;;;;;;;;;8351531;28;20037;-68
2022/01/01 20:22:06;;;;;;;6.00;3.63;;;;;;;;;;8350640;28;20063;-68
2022/01/01 20:26:07;;;;;;;3.38;2.88;;;;;;;;;;8349621;28;20032;-68
2022/01/01 20:30:07;;;;;;;3.80;3.00;;;;;;;;;;8350416;28;20111;-68
2022/01/01 20:34:09;;;;;;;4.65;2.55;;;;;;;;;;8350075;28;20500;-68
2022/01/01 20:38:09;;;;;;;2.97;2.42;;;;;;;;;;8350283;28;20127;-68
2022/01/01 20:42:10;;;;;;;4.55;2.50;;;;;;;;;;8349014;28;20926;-68
2022/01/01 20:46:10;;;;;;;5.85;2.47;;;;;;;;;;8350565;28;20141;-68
2022/01/01 20:50:10;;;;;;;3.55;2.03;;;;;;;;;;8348105;28;20538;-68
2022/01/01 20:54:11;;;;;;;4.75;2.35;;;;;;;;;;8350935;28;20025;-68
2022/01/01 20:58:11;;;;;;;2.83;2.40;;;;;;;;;;8348646;28;20048;-68
2022/01/01 21:02:19;;;;;;;3.42;2.60;;;;;;;;;;8350556;28;20286;-68
2022/01/01 21:06:20;;;;;;;3.85;2.30;;;;;;;;;;8346679;28;20020;-68
2022/01/01 21:10:20;;;;;;;2.67;2.10;;;;;;;;;;8347813;28;20489;-67
2022/01/01 21:14:22;;;;;;;3.28;2.50;;;;;;;;;;8348240;28;21196;-68
2022/01/01 21:18:22;;;;;;;5.22;3.08;;;;;;;;;;8346503;28;20044;-67
2022/01/01 21:22:23;;;;;;;3.90;2.87;;;;;;;;;;8349821;28;20028;-67
2022/01/01 21:26:24;;;;;;;3.75;2.85;;;;;;;;;;8348218;28;20259;-67
2022/01/01 21:30:24;;;;;;;5.32;3.28;;;;;;;;;;8346925;28;20060;-68
2022/01/01 21:34:24;;;;;;;3.88;2.53;;;;;;;;;;8347894;28;20209;-67
2022/01/01 21:38:24;;;;;;;5.88;2.55;;;;;;;;;;8347374;28;20032;-67
2022/01/01 21:42:24;;;;;;;6.53;3.30;;;;;;;;;;8346840;28;20028;-67
2022/01/01 21:46:25;;;;;;;3.60;2.78;;;;;;;;;;8347003;28;20290;-67
2022/01/01 21:50:25;;;;;;;4.63;2.70;;;;;;;;;;8347511;28;20024;-67
2022/01/01 21:54:25;;;;;;;5.30;3.47;;;;;;;;;;8346498;28;20275;-67
2022/01/01 21:58:26;;;;;;;4.30;3.10;;;;;;;;;;8347873;28;20025;-67
2022/01/01 22:02:26;;;;;;;3.88;2.72;;;;;;;;;;8346224;28;20890;-67
2022/01/01 22:06:26;;;;;;;5.95;2.67;;;;;;;;;;8348269;28;20040;-67
2022/01/01 22:10:26;;;;;;;6.32;3.28;;;;;;;;;;8347246;28;20031;-67
2022/01/01 22:14:27;;;;;;;6.70;3.15;;;;;;;;;;8347268;28;20028;-67
2022/01/01 22:18:27;;;;;;;4.97;2.78;;;;;;;;;;8345070;28;20062;-67
2022/01/01 22:22:27;;;;;;;4.88;3.25;;;;;;;;;;8345986;28;20568;-67
2022/01/01 22:26:27;;;;;;;5.47;4.00;;;;;;;;;;8343835;28;20093;-67
2022/01/01 22:30:28;;;;;;;6.30;3.97;;;;;;;;;;8345176;28;20255;-68
2022/01/01 22:34:28;;;;;;;5.72;3.63;;;;;;;;;;8345556;28;20412;-68
2022/01/01 22:38:32;;;;;;;6.43;3.53;;;;;;;;;;8345569;28;20110;-67
2022/01/01 22:42:33;;;;;;;6.13;3.67;;;;;;;;;;8348260;28;20067;-67
2022/01/01 22:46:33;;;;;;;8.13;3.85;;;;;;;;;;8344829;28;20811;-68
2022/01/01 22:50:34;;;;;;;5.55;3.47;;;;;;;;;;8348176;28;20118;-67
2022/01/01 22:54:34;;;;;;;4.07;2.83;;;;;;;;;;8348613;28;20027;-67
2022/01/01 22:58:34;;;;;;;4.20;2.38;;;;;;;;;;8345053;28;20103;-68
2022/01/01 23:02:37;;;;;;;4.55;2.28;;;;;;;;;;8346418;28;20444;-67
2022/01/01 23:06:37;;;;;;;8.77;3.42;;;;;;;;;;8347239;28;20047;-67
2022/01/01 23:10:40;;;;;;;9.23;4.73;;;;;;;;;;8348141;28;20085;-67
2022/01/01 23:14:40;;;;;;;8.10;5.07;;;;;;;;;;8351632;28;21011;-67
2022/01/01 23:18:57;;;;;;;6.87;4.80;;;;;;;;;;8350281;28;20439;-67
2022/01/01 23:22:58;;;;;;;9.95;3.88;;;;;;;;;;8352610;28;20332;-68
2022/01/01 23:27:00;;;;;;;4.68;3.67;;;;;;;;;;8350846;28;20029;-67
2022/01/01 23:31:04;;;;;;;4.20;3.42;;;;;;;;;;8350295;28;20025;-68
2022/01/01 23:35:07;;;;;;;5.70;3.80;;;;;;;;;;8348990;28;20236;-67
2022/01/01 23:39:07;;;;;;;6.03;4.03;;;;;;;;;;8352167;28;20083;-67
2022/01/01 23:43:08;;;;;;;5.53;3.88;;;;;;;;;;8350455;28;20025;-67
2022/01/01 23:47:08;;;;;;;4.78;4.05;;;;;;;;;;8352190;28;20036;-67
2022/01/01 23:51:13;;;;;;;6.88;4.25;;;;;;;;;;8352695;28;20470;-67
2022/01/01 23:55:16;;;;;;;10.43;6.55;;;;;;;;;;8350385;28;20059;-67
2022/01/01 23:59:20;;;;;;;7.88;4.18;;;;;;;;;;8351394;28;20059;-67
